Time,TemperatureF,DewpointF,PressureIn,WindDirection,WindDirectionDegrees,WindSpeedMPH,WindSpeedGustMPH,Humidity,HourlyPrecipIn,Conditions,Clouds,dailyrainin,SoftwareType,DateUTC
2013-06-05 00:02:00,47.7,44.6,30.08,West,270,3.2,5.8,89,0.00,RA,,0.00,WeatherDisplay:10.37,2013-06-05 06:02:00,
2013-06-05 00:07:00,47.8,44.7,30.08,SE,135,4.3,5.8,89,0.00,RA,,0.00,WeatherDisplay:10.37,2013-06-05 06:07:00,
2013-06-05 00:12:00,48.0,44.9,30.08,NW,315,2.6,3.5,89,0.00,OVC,,0.00,WeatherDisplay:10.37,2013-06-05 06:12:00,
2013-06-05 00:17:00,48.0,44.9,30.08,West,270,6.0,9.2,89,0.00,OVC,,0.00,WeatherDisplay:10.37,2013-06-05 06:17:00,
2013-06-05 00:22:00,48.0,44.9,30.08,NW,315,3.9,5.8,89,0.00,OVC,,0.00,WeatherDisplay:10.37,2013-06-05 06:22:00,
2013-06-05 00:27:00,48.2,45.1,30.08,WNW,292,3.7,5.8,89,0.00,OVC,,0.00,WeatherDisplay:10.37,2013-06-05 06:27:00,
2013-06-05 00:32:00,48.4,45.0,30.08,WNW,292,3.9,6.9,88,0.00,OVC,,0.00,WeatherDisplay:10.37,2013-06-05 06:32:00,
2013-06-05 00:37:00,48.4,45.0,30.08,WNW,292,3.0,4.6,88,0.00,OVC,,0.00,WeatherDisplay:10.37,2013-06-05 06:37:00,
2013-06-05 00:42:00,48.4,45.0,30.08,NW,315,4.7,6.3,88,0.00,OVC,,0.00,WeatherDisplay:10.37,2013-06-05 06:42:00,
2013-06-05 00:47:00,48.4,45.0,30.08,WSW,248,4.6,6.9,88,0.00,OVC,,0.00,WeatherDisplay:10.37,2013-06-05 06:47:00,
2013-06-05 00:52:00,48.4,45.0,30.08,NW,315,5.4,6.9,88,0.00,OVC,,0.00,WeatherDisplay:10.37,2013-06-05 06:52:00,
2013-06-05 00:57:00,48.4,45.0,30.08,West,270,4.4,5.8,88,0.00,OVC,,0.00,WeatherDisplay:10.37,2013-06-05 06:57:00,
2013-06-05 01:02:00,48.4,45.0,30.08,WSW,248,4.5,6.8,88,0.00,OVC,,0.00,WeatherDisplay:10.37,2013-06-05 07:02:00,
2013-06-05 01:07:00,48.4,45.0,30.08,NW,315,5.7,9.2,88,0.00,OVC,,0.00,WeatherDisplay:10.37,2013-06-05 07:07:00,
2013-06-05 01:13:00,48.4,45.0,30.08,SW,225,4.6,4.6,88,0.00,OVC,,0.00,WeatherDisplay:10.37,2013-06-05 07:13:00,
2013-06-05 01:17:00,48.2,44.8,30.08,NW,315,3.1,5.8,88,0.00,OVC,,0.00,WeatherDisplay:10.37,2013-06-05 07:17:00,
2013-06-05 01:23:00,48.2,44.8,30.08,West,270,4.8,5.8,88,0.00,OVC,,0.00,WeatherDisplay:10.37,2013-06-05 07:23:00,
2013-06-05 01:28:00,48.2,44.8,30.08,West,270,2.7,4.2,88,0.00,OVC,,0.00,WeatherDisplay:10.37,2013-06-05 07:28:00,
2013-06-05 01:33:00,48.2,44.8,30.08,South,180,3.0,6.9,88,0.00,OVC,,0.00,WeatherDisplay:10.37,2013-06-05 07:33:00,
2013-06-05 01:38:00,48.2,44.8,30.09,ESE,112,5.0,6.9,88,0.00,OVC,,0.00,WeatherDisplay:10.37,2013-06-05 07:38:00,
2013-06-05 01:43:00,48.2,44.8,30.09,NW,315,5.2,6.9,88,0.00,OVC,,0.00,WeatherDisplay:10.37,2013-06-05 07:43:00,
2013-06-05 01:48:00,48.2,44.8,30.09,WNW,292,2.5,2.7,88,0.00,OVC,,0.00,WeatherDisplay:10.37,2013-06-05 07:48:00,
2013-06-05 01:53:00,48.2,44.8,30.09,SW,225,4.1,4.7,88,0.00,OVC,,0.00,WeatherDisplay:10.37,2013-06-05 07:53:00,
2013-06-05 01:58:00,48.2,44.8,30.09,SSW,202,4.5,5.8,88,0.00,OVC,,0.00,WeatherDisplay:10.37,2013-06-05 07:58:00,
2013-06-05 02:03:00,48.2,44.8,30.09,WNW,292,3.2,3.5,88,0.00,OVC,,0.00,WeatherDisplay:10.37,2013-06-05 08:03:00,
2013-06-05 02:08:00,48.2,44.5,30.09,West,270,3.3,4.2,87,0.00,OVC,,0.00,WeatherDisplay:10.37,2013-06-05 08:08:00,
2013-06-05 02:13:00,48.4,44.7,30.09,West,270,3.7,5.8,87,0.00,OVC,,0.00,WeatherDisplay:10.37,2013-06-05 08:13:00,
2013-06-05 02:18:00,48.4,44.7,30.09,NW,315,2.6,3.5,87,0.00,OVC,,0.00,WeatherDisplay:10.37,2013-06-05 08:18:00,
2013-06-05 02:23:00,48.4,44.7,30.09,NW,315,4.6,5.8,87,0.00,OVC,,0.00,WeatherDisplay:10.37,2013-06-05 08:23:00,
2013-06-05 02:28:00,48.4,44.7,30.08,West,270,5.0,7.8,87,0.00,OVC,,0.00,WeatherDisplay:10.37,2013-06-05 08:28:00,
2013-06-05 02:33:00,48.4,44.7,30.08,NW,315,3.9,4.6,87,0.00,OVC,,0.00,WeatherDisplay:10.37,2013-06-05 08:33:00,
2013-06-05 02:38:00,48.4,44.7,30.08,WSW,248,3.9,4.7,87,0.00,OVC,,0.00,WeatherDisplay:10.37,2013-06-05 08:38:00,
2013-06-05 02:43:00,48.4,44.7,30.08,NE,45,2.8,5.3,87,0.00,OVC,,0.00,WeatherDisplay:10.37,2013-06-05 08:43:00,
2013-06-05 02:48:00,48.4,44.7,30.08,WNW,292,3.3,6.3,87,0.00,OVC,,0.00,WeatherDisplay:10.37,2013-06-05 08:48:00,
2013-06-05 02:53:00,48.4,44.7,30.08,WNW,292,4.2,5.3,87,0.00,OVC,,0.00,WeatherDisplay:10.37,2013-06-05 08:53:00,
2013-06-05 02:58:00,48.4,44.7,30.08,West,270,3.0,3.5,87,0.00,OVC,,0.00,WeatherDisplay:10.37,2013-06-05 08:58:00,
2013-06-05 03:03:00,48.4,44.7,30.08,WNW,292,3.5,4.6,87,0.00,OVC,,0.00,WeatherDisplay:10.37,2013-06-05 09:03:00,
2013-06-05 03:08:00,48.2,44.5,30.08,North,360,2.7,5.8,87,0.00,OVC,,0.00,WeatherDisplay:10.37,2013-06-05 09:08:00,
2013-06-05 03:13:00,48.2,44.5,30.08,West,270,2.6,3.5,87,0.00,OVC,,0.00,WeatherDisplay:10.37,2013-06-05 09:13:00,
2013-06-05 03:18:00,48.2,44.8,30.08,WNW,292,2.2,3.2,88,0.00,OVC,,0.00,WeatherDisplay:10.37,2013-06-05 09:18:00,
2013-06-05 03:23:00,48.2,44.8,30.08,WNW,292,3.3,3.5,88,0.00,OVC,,0.00,WeatherDisplay:10.37,2013-06-05 09:23:00,
2013-06-05 03:28:00,48.2,44.5,30.08,NW,315,3.0,3.5,87,0.00,OVC,,0.00,WeatherDisplay:10.37,2013-06-05 09:28:00,
2013-06-05 03:33:00,48.2,44.5,30.08,WSW,248,2.5,4.6,87,0.00,OVC,,0.00,WeatherDisplay:10.37,2013-06-05 09:33:00,
2013-06-05 03:38:00,48.2,44.5,30.08,WSW,248,2.8,4.6,87,0.00,OVC,,0.00,WeatherDisplay:10.37,2013-06-05 09:38:00,
2013-06-05 03:43:00,48.2,44.5,30.08,West,270,3.2,3.5,87,0.00,OVC,,0.00,WeatherDisplay:10.37,2013-06-05 09:43:00,
2013-06-05 03:48:00,48.2,44.5,30.08,West,270,3.2,3.5,87,0.00,OVC,,0.00,WeatherDisplay:10.37,2013-06-05 09:48:00,
2013-06-05 03:53:00,48.2,44.5,30.08,WSW,248,4.6,4.6,87,0.00,OVC,,0.00,WeatherDisplay:10.37,2013-06-05 09:53:00,
2013-06-05 03:58:00,48.0,44.3,30.08,WSW,248,3.5,5.8,87,0.00,OVC,,0.00,WeatherDisplay:10.37,2013-06-05 09:58:00,
2013-06-05 04:03:00,48.0,44.3,30.08,NW,315,2.3,2.7,87,0.00,OVC,,0.00,WeatherDisplay:10.37,2013-06-05 10:03:00,
2013-06-05 04:08:00,48.0,44.3,30.08,NNE,22,3.5,4.6,87,0.00,OVC,,0.00,WeatherDisplay:10.37,2013-06-05 10:08:00,
2013-06-05 04:13:00,48.0,44.3,30.08,WNW,292,2.7,5.8,87,0.00,OVC,,0.00,WeatherDisplay:10.37,2013-06-05 10:13:00,
2013-06-05 04:18:00,48.2,44.2,30.08,WNW,292,4.5,5.8,86,0.00,OVC,,0.00,WeatherDisplay:10.37,2013-06-05 10:18:00,
2013-06-05 04:23:00,48.2,44.2,30.08,NE,45,3.1,5.8,86,0.00,OVC,,0.00,WeatherDisplay:10.37,2013-06-05 10:23:00,
2013-06-05 04:28:00,48.2,44.2,30.08,NNW,338,2.8,3.7,86,0.00,OVC,,0.00,WeatherDisplay:10.37,2013-06-05 10:28:00,
2013-06-05 04:33:00,48.2,44.2,30.08,WNW,292,4.4,6.9,86,0.00,OVC,,0.00,WeatherDisplay:10.37,2013-06-05 10:33:00,
2013-06-05 04:38:00,48.2,44.2,30.08,NW,315,2.7,6.8,86,0.00,OVC,,0.00,WeatherDisplay:10.37,2013-06-05 10:38:00,
2013-06-05 04:43:00,48.2,44.2,30.08,WNW,292,3.9,4.6,86,0.00,OVC,,0.00,WeatherDisplay:10.37,2013-06-05 10:43:00,
2013-06-05 04:48:00,48.2,44.2,30.08,WNW,292,4.6,5.8,86,0.00,OVC,,0.00,WeatherDisplay:10.37,2013-06-05 10:48:00,
2013-06-05 04:53:00,48.2,44.2,30.08,West,270,5.1,6.9,86,0.00,OVC,,0.00,WeatherDisplay:10.37,2013-06-05 10:53:00,
2013-06-05 04:58:00,48.2,43.9,30.08,West,270,3.0,4.6,85,0.00,OVC,,0.00,WeatherDisplay:10.37,2013-06-05 10:58:00,
2013-06-05 05:03:00,48.2,43.9,30.09,WNW,292,4.5,4.7,85,0.00,OVC,,0.00,WeatherDisplay:10.37,2013-06-05 11:03:00,
2013-06-05 05:08:00,48.2,43.9,30.09,NNW,338,4.1,4.7,85,0.00,OVC,,0.00,WeatherDisplay:10.37,2013-06-05 11:08:00,
2013-06-05 05:13:00,48.0,43.7,30.09,WNW,292,3.0,4.6,85,0.00,OVC,,0.00,WeatherDisplay:10.37,2013-06-05 11:13:00,
2013-06-05 05:18:00,47.8,43.5,30.09,ESE,112,3.9,5.8,85,0.00,OVC,,0.00,WeatherDisplay:10.37,2013-06-05 11:18:00,
2013-06-05 05:23:00,47.8,43.5,30.09,WNW,292,3.8,4.7,85,0.00,OVC,,0.00,WeatherDisplay:10.37,2013-06-05 11:23:00,
2013-06-05 05:28:00,47.7,43.4,30.09,NNW,338,3.0,4.2,85,0.00,OVC,,0.00,WeatherDisplay:10.37,2013-06-05 11:28:00,
2013-06-05 05:33:00,47.5,43.2,30.09,West,270,4.7,6.9,85,0.00,OVC,,0.00,WeatherDisplay:10.37,2013-06-05 11:33:00,
2013-06-05 05:38:00,47.5,43.2,30.09,WNW,292,4.0,5.8,85,0.00,OVC,,0.00,WeatherDisplay:10.37,2013-06-05 11:38:00,
2013-06-05 05:43:00,47.5,42.9,30.09,NNE,22,5.2,5.2,84,0.00,OVC,,0.00,WeatherDisplay:10.37,2013-06-05 11:43:00,
2013-06-05 05:48:00,47.1,42.5,30.09,WNW,292,2.8,4.6,84,0.00,OVC,,0.00,WeatherDisplay:10.37,2013-06-05 11:48:00,
2013-06-05 05:53:00,46.9,42.6,30.09,SSW,202,2.8,3.5,85,0.00,OVC,,0.00,WeatherDisplay:10.37,2013-06-05 11:53:00,
2013-06-05 05:58:00,46.8,42.5,30.09,NW,315,2.9,4.6,85,0.00,OVC,,0.00,WeatherDisplay:10.37,2013-06-05 11:58:00,
2013-06-05 06:03:00,46.8,42.5,30.10,WNW,292,2.5,3.7,85,0.00,BKN,,0.00,WeatherDisplay:10.37,2013-06-05 12:03:00,
2013-06-05 06:08:00,46.6,42.3,30.10,SSE,158,3.5,4.6,85,0.00,BKN,,0.00,WeatherDisplay:10.37,2013-06-05 12:08:00,
2013-06-05 06:13:00,46.6,42.3,30.10,SE,135,3.2,4.6,85,0.00,BKN,,0.00,WeatherDisplay:10.37,2013-06-05 12:13:00,
2013-06-05 06:18:00,46.6,42.3,30.10,NNE,22,3.4,4.6,85,0.00,BKN,,0.00,WeatherDisplay:10.37,2013-06-05 12:18:00,
2013-06-05 06:23:00,46.8,42.5,30.10,WNW,292,2.2,3.2,85,0.00,BKN,,0.00,WeatherDisplay:10.37,2013-06-05 12:23:00,
2013-06-05 06:28:00,46.9,42.6,30.10,NNW,338,2.2,5.3,85,0.00,BKN,,0.00,WeatherDisplay:10.37,2013-06-05 12:28:00,
2013-06-05 06:33:00,46.9,42.3,30.10,West,270,2.6,2.7,84,0.00,BKN,,0.00,WeatherDisplay:10.37,2013-06-05 12:33:00,
2013-06-05 06:38:00,47.7,43.1,30.10,NNW,338,1.1,2.2,84,0.00,BKN,,0.00,WeatherDisplay:10.37,2013-06-05 12:38:00,
2013-06-05 06:43:00,48.9,43.3,30.10,East,90,2.3,2.3,81,0.00,BKN,,0.00,WeatherDisplay:10.37,2013-06-05 12:43:00,
2013-06-05 06:48:00,49.8,43.5,30.10,SW,225,1.6,5.8,79,0.00,BKN,,0.00,WeatherDisplay:10.37,2013-06-05 12:48:00,
2013-06-05 06:53:00,50.9,43.9,30.10,SW,225,3.1,4.6,77,0.00,BKN,,0.00,WeatherDisplay:10.37,2013-06-05 12:53:00,
2013-06-05 06:58:00,51.6,44.6,30.10,WSW,248,3.0,3.5,77,0.00,BKN,,0.00,WeatherDisplay:10.37,2013-06-05 12:58:00,
2013-06-05 07:03:00,52.5,44.4,30.10,NW,315,3.9,4.6,74,0.00,BKN,,0.00,WeatherDisplay:10.37,2013-06-05 13:03:00,
2013-06-05 07:08:00,53.2,44.4,30.10,East,90,4.0,4.6,72,0.00,BKN,,0.00,WeatherDisplay:10.37,2013-06-05 13:08:00,
2013-06-05 07:13:00,53.6,44.4,30.10,WNW,292,3.7,5.8,71,0.00,BKN,,0.00,WeatherDisplay:10.37,2013-06-05 13:13:00,
2013-06-05 07:18:00,54.0,44.8,30.10,West,270,3.1,4.6,71,0.00,BKN,,0.00,WeatherDisplay:10.37,2013-06-05 13:18:00,
2013-06-05 07:23:00,54.7,44.7,30.10,NW,315,2.7,2.7,69,0.00,BKN,,0.00,WeatherDisplay:10.37,2013-06-05 13:23:00,
2013-06-05 07:28:00,54.7,44.7,30.10,NW,315,2.7,2.7,69,0.00,BKN,,0.00,WeatherDisplay:10.37,2013-06-05 13:28:00,
2013-06-05 07:33:00,55.2,44.4,30.10,NE,45,4.6,4.6,67,0.00,BKN,,0.00,WeatherDisplay:10.37,2013-06-05 13:33:00,
2013-06-05 07:38:00,56.1,44.5,30.11,East,90,4.4,4.7,65,0.00,BKN,,0.00,WeatherDisplay:10.37,2013-06-05 13:38:00,
2013-06-05 07:43:00,55.9,44.7,30.11,NNE,22,4.6,6.3,66,0.00,BKN,,0.00,WeatherDisplay:10.37,2013-06-05 13:43:00,
2013-06-05 07:48:00,56.7,45.1,30.11,WNW,292,2.6,8.1,65,0.00,BKN,,0.00,WeatherDisplay:10.37,2013-06-05 13:48:00,
2013-06-05 07:53:00,56.7,44.7,30.11,NNW,338,3.8,6.9,64,0.00,BKN,,0.00,WeatherDisplay:10.37,2013-06-05 13:53:00,
2013-06-05 07:58:00,57.4,45.3,30.11,NNW,338,3.0,3.0,64,0.00,BKN,,0.00,WeatherDisplay:10.37,2013-06-05 13:58:00,
2013-06-05 08:03:00,57.2,44.7,30.11,NNW,338,3.0,4.6,63,0.00,CLR,,0.00,WeatherDisplay:10.37,2013-06-05 14:03:00,
2013-06-05 08:08:00,57.4,44.9,30.11,NE,45,4.4,4.7,63,0.00,CLR,,0.00,WeatherDisplay:10.37,2013-06-05 14:08:00,
2013-06-05 08:13:00,57.4,43.6,30.11,SW,225,4.7,4.7,60,0.00,CLR,,0.00,WeatherDisplay:10.37,2013-06-05 14:13:00,
2013-06-05 08:18:00,57.0,43.7,30.11,NNE,22,6.5,6.5,61,0.00,CLR,,0.00,WeatherDisplay:10.37,2013-06-05 14:18:00,
2013-06-05 08:23:00,56.8,43.5,30.11,West,270,5.5,6.9,61,0.00,CLR,,0.00,WeatherDisplay:10.37,2013-06-05 14:23:00,
2013-06-05 08:28:00,57.2,43.9,30.11,SSE,158,4.0,6.9,61,0.00,CLR,,0.00,WeatherDisplay:10.37,2013-06-05 14:28:00,
2013-06-05 08:33:00,56.8,43.1,30.11,North,360,5.4,8.1,60,0.00,CLR,,0.00,WeatherDisplay:10.37,2013-06-05 14:33:00,
2013-06-05 08:38:00,56.8,43.5,30.12,NE,45,4.5,5.8,61,0.00,CLR,,0.00,WeatherDisplay:10.37,2013-06-05 14:38:00,
2013-06-05 08:43:00,57.4,44.1,30.12,NE,45,4.7,5.8,61,0.00,CLR,,0.00,WeatherDisplay:10.37,2013-06-05 14:43:00,
2013-06-05 08:48:00,57.4,43.2,30.12,NW,315,7.6,10.4,59,0.00,CLR,,0.00,WeatherDisplay:10.37,2013-06-05 14:48:00,
2013-06-05 08:53:00,57.2,43.4,30.12,West,270,3.7,6.9,60,0.00,CLR,,0.00,WeatherDisplay:10.37,2013-06-05 14:53:00,
2013-06-05 08:58:00,57.4,43.2,30.12,ENE,68,6.7,6.9,59,0.00,CLR,,0.00,WeatherDisplay:10.37,2013-06-05 14:58:00,
2013-06-05 09:03:00,57.2,43.0,30.11,NNE,22,6.6,6.9,59,0.00,CLR,,0.00,WeatherDisplay:10.37,2013-06-05 15:03:00,
2013-06-05 09:08:00,57.2,43.4,30.11,NNW,338,5.7,6.9,60,0.00,CLR,,0.00,WeatherDisplay:10.37,2013-06-05 15:08:00,
2013-06-05 09:13:00,57.9,44.1,30.11,NW,315,5.2,8.3,60,0.00,CLR,,0.00,WeatherDisplay:10.37,2013-06-05 15:13:00,
2013-06-05 09:19:00,58.5,43.8,30.11,NE,45,5.1,7.3,58,0.00,CLR,,0.00,WeatherDisplay:10.37,2013-06-05 15:19:00,
2013-06-05 09:24:00,58.1,42.0,30.11,North,360,6.7,7.3,55,0.00,CLR,,0.00,WeatherDisplay:10.37,2013-06-05 15:24:00,
2013-06-05 09:29:00,58.1,42.5,30.11,WNW,292,7.1,8.1,56,0.00,CLR,,0.00,WeatherDisplay:10.37,2013-06-05 15:29:00,
2013-06-05 09:34:00,58.3,43.1,30.11,NNE,22,3.8,5.8,57,0.00,CLR,,0.00,WeatherDisplay:10.37,2013-06-05 15:34:00,
2013-06-05 09:39:00,58.3,42.7,30.11,NW,315,8.1,10.4,56,0.00,CLR,,0.00,WeatherDisplay:10.37,2013-06-05 15:39:00,
2013-06-05 09:44:00,58.3,43.1,30.11,NNW,338,4.9,6.9,57,0.00,CLR,,0.00,WeatherDisplay:10.37,2013-06-05 15:44:00,
2013-06-05 09:49:00,58.3,41.7,30.11,ENE,68,8.8,11.5,54,0.00,CLR,,0.00,WeatherDisplay:10.37,2013-06-05 15:49:00,
2013-06-05 09:54:00,58.1,42.5,30.12,NNE,22,8.2,11.5,56,0.00,CLR,,0.00,WeatherDisplay:10.37,2013-06-05 15:54:00,
2013-06-05 09:59:00,58.5,43.3,30.12,NW,315,6.1,8.1,57,0.00,CLR,,0.00,WeatherDisplay:10.37,2013-06-05 15:59:00,
2013-06-05 10:04:00,58.8,43.1,30.11,NNE,22,4.5,5.8,56,0.00,OVC,,0.00,WeatherDisplay:10.37,2013-06-05 16:04:00,
2013-06-05 10:09:00,58.8,42.7,30.11,North,360,6.6,8.1,55,0.00,OVC,,0.00,WeatherDisplay:10.37,2013-06-05 16:09:00,
2013-06-05 10:14:00,59.4,43.2,30.11,NNE,22,6.1,7.3,55,0.00,OVC,,0.00,WeatherDisplay:10.37,2013-06-05 16:14:00,
2013-06-05 10:19:00,59.7,41.5,30.11,NNE,22,8.9,11.5,51,0.00,OVC,,0.00,WeatherDisplay:10.37,2013-06-05 16:19:00,
2013-06-05 10:24:00,59.5,41.3,30.11,NE,45,6.1,8.1,51,0.00,OVC,,0.00,WeatherDisplay:10.37,2013-06-05 16:24:00,
2013-06-05 10:29:00,59.9,41.2,30.11,ENE,68,11.5,15.0,50,0.00,OVC,,0.00,WeatherDisplay:10.37,2013-06-05 16:29:00,
2013-06-05 10:34:00,59.9,41.2,30.11,NNE,22,7.0,8.1,50,0.00,OVC,,0.00,WeatherDisplay:10.37,2013-06-05 16:34:00,
2013-06-05 10:39:00,59.7,41.0,30.11,ENE,68,6.6,6.9,50,0.00,OVC,,0.00,WeatherDisplay:10.37,2013-06-05 16:39:00,
2013-06-05 10:44:00,59.4,41.8,30.11,ENE,68,4.7,5.8,52,0.00,OVC,,0.00,WeatherDisplay:10.37,2013-06-05 16:44:00,
2013-06-05 10:49:00,59.5,41.9,30.11,NNE,22,6.2,9.4,52,0.00,OVC,,0.00,WeatherDisplay:10.37,2013-06-05 16:49:00,
2013-06-05 10:54:00,59.7,42.0,30.11,WSW,248,6.8,9.2,52,0.00,OVC,,0.00,WeatherDisplay:10.37,2013-06-05 16:54:00,
2013-06-05 10:59:00,59.4,41.3,30.11,NNW,338,7.7,10.4,51,0.00,OVC,,0.00,WeatherDisplay:10.37,2013-06-05 16:59:00,
2013-06-05 11:04:00,59.0,41.4,30.11,WNW,292,5.8,6.8,52,0.00,OVC,,0.00,WeatherDisplay:10.37,2013-06-05 17:04:00,
2013-06-05 11:09:00,59.5,41.9,30.11,ENE,68,5.5,7.3,52,0.00,OVC,,0.00,WeatherDisplay:10.37,2013-06-05 17:09:00,
2013-06-05 11:14:00,59.4,41.3,30.11,SW,225,6.1,8.1,51,0.00,OVC,,0.00,WeatherDisplay:10.37,2013-06-05 17:14:00,
2013-06-05 11:19:00,59.4,41.3,30.11,North,360,7.3,8.1,51,0.00,OVC,,0.00,WeatherDisplay:10.37,2013-06-05 17:19:00,
2013-06-05 11:24:00,59.4,41.8,30.11,North,360,6.6,8.1,52,0.00,OVC,,0.00,WeatherDisplay:10.37,2013-06-05 17:24:00,
2013-06-05 11:29:00,60.4,42.2,30.11,NNE,22,5.2,9.2,51,0.00,OVC,,0.00,WeatherDisplay:10.37,2013-06-05 17:29:00,
2013-06-05 11:34:00,59.9,40.1,30.11,NNE,22,6.9,9.2,48,0.00,OVC,,0.00,WeatherDisplay:10.37,2013-06-05 17:34:00,
2013-06-05 11:39:00,59.4,39.7,30.12,NW,315,8.3,9.2,48,0.00,OVC,,0.00,WeatherDisplay:10.37,2013-06-05 17:39:00,
2013-06-05 11:44:00,59.5,40.3,30.12,NW,315,5.3,5.8,49,0.00,OVC,,0.00,WeatherDisplay:10.37,2013-06-05 17:44:00,
2013-06-05 11:49:00,59.9,39.1,30.11,NE,45,8.1,11.9,46,0.00,OVC,,0.00,WeatherDisplay:10.37,2013-06-05 17:49:00,
2013-06-05 11:54:00,59.4,39.7,30.11,ESE,112,7.0,10.4,48,0.00,OVC,,0.00,WeatherDisplay:10.37,2013-06-05 17:54:00,
2013-06-05 11:59:00,59.2,40.0,30.11,NE,45,5.0,6.9,49,0.00,OVC,,0.00,WeatherDisplay:10.37,2013-06-05 17:59:00,
2013-06-05 12:04:00,60.3,41.6,30.11,NNE,22,8.3,10.4,50,0.00,OVC,,0.00,WeatherDisplay:10.37,2013-06-05 18:04:00,
2013-06-05 12:09:00,60.6,41.3,30.11,NE,45,7.0,8.1,49,0.00,OVC,,0.00,WeatherDisplay:10.37,2013-06-05 18:09:00,
2013-06-05 12:14:00,60.8,42.5,30.11,NNE,22,4.7,7.3,51,0.00,OVC,,0.00,WeatherDisplay:10.37,2013-06-05 18:14:00,
2013-06-05 12:19:00,63.0,44.1,30.11,ENE,68,5.8,6.9,50,0.00,OVC,,0.00,WeatherDisplay:10.37,2013-06-05 18:19:00,
2013-06-05 12:24:00,62.2,42.8,30.11,NNE,22,6.4,8.1,49,0.00,OVC,,0.00,WeatherDisplay:10.37,2013-06-05 18:24:00,
2013-06-05 12:29:00,62.6,42.6,30.11,NNE,22,8.7,10.4,48,0.00,OVC,,0.00,WeatherDisplay:10.37,2013-06-05 18:29:00,
2013-06-05 12:34:00,62.2,44.3,30.11,North,360,5.8,5.8,52,0.00,OVC,,0.00,WeatherDisplay:10.37,2013-06-05 18:34:00,
2013-06-05 12:39:00,61.7,43.9,30.10,North,360,5.3,5.8,52,0.00,OVC,,0.00,WeatherDisplay:10.37,2013-06-05 18:39:00,
2013-06-05 12:44:00,61.0,43.2,30.10,ENE,68,6.2,8.1,52,0.00,OVC,,0.00,WeatherDisplay:10.37,2013-06-05 18:44:00,
2013-06-05 12:49:00,61.2,43.9,30.10,NNW,338,5.8,8.8,53,0.00,OVC,,0.00,WeatherDisplay:10.37,2013-06-05 18:49:00,
2013-06-05 12:54:00,61.7,44.9,30.10,ENE,68,2.6,6.9,54,0.00,OVC,,0.00,WeatherDisplay:10.37,2013-06-05 18:54:00,
2013-06-05 12:59:00,63.3,45.9,30.10,NNE,22,5.6,7.8,53,0.00,OVC,,0.00,WeatherDisplay:10.37,2013-06-05 18:59:00,
2013-06-05 13:04:00,62.1,44.8,30.10,WNW,292,5.7,6.9,53,0.00,OVC,,0.00,WeatherDisplay:10.37,2013-06-05 19:04:00,
2013-06-05 13:09:00,62.6,44.7,30.10,NW,315,5.3,7.3,52,0.00,OVC,,0.00,WeatherDisplay:10.37,2013-06-05 19:09:00,
2013-06-05 13:14:00,62.2,44.9,30.10,NNW,338,6.2,8.1,53,0.00,OVC,,0.00,WeatherDisplay:10.37,2013-06-05 19:14:00,
2013-06-05 13:19:00,61.9,45.1,30.10,NNW,338,5.1,5.8,54,0.00,OVC,,0.00,WeatherDisplay:10.37,2013-06-05 19:19:00,
2013-06-05 13:24:00,62.6,45.2,30.10,ENE,68,6.5,8.1,53,0.00,OVC,,0.00,WeatherDisplay:10.37,2013-06-05 19:24:00,
2013-06-05 13:29:00,61.2,44.9,30.10,NNE,22,4.8,6.8,55,0.00,OVC,,0.00,WeatherDisplay:10.37,2013-06-05 19:29:00,
2013-06-05 13:34:00,62.8,45.4,30.10,North,360,4.9,6.8,53,0.00,OVC,,0.00,WeatherDisplay:10.37,2013-06-05 19:34:00,
2013-06-05 13:39:00,61.2,44.9,30.10,NE,45,7.5,8.1,55,0.00,OVC,,0.00,WeatherDisplay:10.37,2013-06-05 19:39:00,
2013-06-05 13:44:00,61.2,44.9,30.10,WNW,292,6.5,8.1,55,0.00,OVC,,0.00,WeatherDisplay:10.37,2013-06-05 19:44:00,
2013-06-05 13:49:00,60.6,44.8,30.10,NW,315,4.7,6.9,56,0.00,OVC,,0.00,WeatherDisplay:10.37,2013-06-05 19:49:00,
2013-06-05 13:54:00,61.3,45.5,30.10,NNE,22,3.9,5.8,56,0.00,OVC,,0.00,WeatherDisplay:10.37,2013-06-05 19:54:00,
2013-06-05 13:59:00,61.0,45.2,30.10,North,360,5.8,8.1,56,0.00,OVC,,0.00,WeatherDisplay:10.37,2013-06-05 19:59:00,
2013-06-05 14:04:00,62.2,45.8,30.09,NNE,22,5.4,5.8,55,0.00,OVC,,0.00,WeatherDisplay:10.37,2013-06-05 20:04:00,
2013-06-05 14:09:00,61.9,45.5,30.09,ESE,112,6.4,8.1,55,0.00,OVC,,0.00,WeatherDisplay:10.37,2013-06-05 20:09:00,
2013-06-05 14:14:00,61.0,45.2,30.09,NNE,22,6.0,6.9,56,0.00,OVC,,0.00,WeatherDisplay:10.37,2013-06-05 20:14:00,
2013-06-05 14:19:00,62.8,45.9,30.09,NE,45,4.1,7.3,54,0.00,OVC,,0.00,WeatherDisplay:10.37,2013-06-05 20:19:00,
2013-06-05 14:24:00,61.9,45.1,30.09,ENE,68,4.7,10.4,54,0.00,OVC,,0.00,WeatherDisplay:10.37,2013-06-05 20:24:00,
2013-06-05 14:29:00,62.4,46.0,30.09,SSW,202,5.7,10.4,55,0.00,OVC,,0.00,WeatherDisplay:10.37,2013-06-05 20:29:00,
2013-06-05 14:34:00,62.1,45.7,30.09,West,270,5.4,6.3,55,0.00,OVC,,0.00,WeatherDisplay:10.37,2013-06-05 20:34:00,
2013-06-05 14:39:00,61.3,45.5,30.08,NNE,22,5.0,5.8,56,0.00,OVC,,0.00,WeatherDisplay:10.37,2013-06-05 20:39:00,
2013-06-05 14:44:00,62.8,45.9,30.08,NNW,338,5.1,8.3,54,0.00,OVC,,0.00,WeatherDisplay:10.37,2013-06-05 20:44:00,
2013-06-05 14:49:00,62.4,46.5,30.08,ENE,68,4.8,6.9,56,0.00,OVC,,0.00,WeatherDisplay:10.37,2013-06-05 20:49:00,
2013-06-05 14:54:00,62.4,46.0,30.08,NNE,22,4.1,5.8,55,0.00,OVC,,0.00,WeatherDisplay:10.37,2013-06-05 20:54:00,
2013-06-05 14:59:00,63.5,46.1,30.08,NNE,22,3.8,7.3,53,0.00,OVC,,0.00,WeatherDisplay:10.37,2013-06-05 20:59:00,
2013-06-05 15:04:00,63.3,46.9,30.08,East,90,3.3,4.6,55,0.00,SCT,,0.00,WeatherDisplay:10.37,2013-06-05 21:04:00,
2013-06-05 15:09:00,61.9,46.0,30.08,NNW,338,6.3,6.9,56,0.00,SCT,,0.00,WeatherDisplay:10.37,2013-06-05 21:09:00,
2013-06-05 15:14:00,61.9,47.0,30.08,West,270,4.0,9.2,58,0.00,SCT,,0.00,WeatherDisplay:10.37,2013-06-05 21:14:00,
2013-06-05 15:19:00,62.8,47.3,30.08,ESE,112,2.9,4.6,57,0.00,SCT,,0.00,WeatherDisplay:10.37,2013-06-05 21:19:00,
2013-06-05 15:24:00,62.1,46.2,30.08,NNE,22,6.7,9.4,56,0.00,SCT,,0.00,WeatherDisplay:10.37,2013-06-05 21:24:00,
2013-06-05 15:29:00,61.7,46.3,30.09,NNE,22,3.7,4.6,57,0.00,SCT,,0.00,WeatherDisplay:10.37,2013-06-05 21:29:00,
2013-06-05 15:34:00,62.1,46.2,30.09,NE,45,4.5,6.9,56,0.00,SCT,,0.00,WeatherDisplay:10.37,2013-06-05 21:34:00,
2013-06-05 15:39:00,62.2,46.3,30.08,SE,135,7.4,8.1,56,0.00,SCT,,0.00,WeatherDisplay:10.37,2013-06-05 21:39:00,
2013-06-05 15:44:00,63.3,46.9,30.08,NNE,22,4.5,6.9,55,0.00,SCT,,0.00,WeatherDisplay:10.37,2013-06-05 21:44:00,
2013-06-05 15:49:00,63.3,46.4,30.08,East,90,4.1,6.3,54,0.00,SCT,,0.00,WeatherDisplay:10.37,2013-06-05 21:49:00,
2013-06-05 15:54:00,63.7,46.7,30.08,ENE,68,4.1,5.8,54,0.00,SCT,,0.00,WeatherDisplay:10.37,2013-06-05 21:54:00,
2013-06-05 15:59:00,62.8,45.9,30.08,NNE,22,7.2,8.8,54,0.00,SCT,,0.00,WeatherDisplay:10.37,2013-06-05 21:59:00,
2013-06-05 16:04:00,63.1,47.1,30.08,NE,45,3.6,3.6,56,0.00,BKN,,0.00,WeatherDisplay:10.37,2013-06-05 22:04:00,
2013-06-05 16:09:00,62.8,46.4,30.08,NE,45,3.4,5.8,55,0.00,BKN,,0.00,WeatherDisplay:10.37,2013-06-05 22:09:00,
2013-06-05 16:14:00,62.1,46.2,30.08,NE,45,4.8,5.8,56,0.00,BKN,,0.00,WeatherDisplay:10.37,2013-06-05 22:14:00,
2013-06-05 16:19:00,63.3,47.3,30.08,NNE,22,4.4,5.3,56,0.00,BKN,,0.00,WeatherDisplay:10.37,2013-06-05 22:19:00,
2013-06-05 16:24:00,63.0,46.1,30.08,NE,45,2.0,6.9,54,0.00,BKN,,0.00,WeatherDisplay:10.37,2013-06-05 22:24:00,
2013-06-05 16:29:00,64.2,47.2,30.08,ESE,112,1.7,2.3,54,0.00,BKN,,0.00,WeatherDisplay:10.37,2013-06-05 22:29:00,
2013-06-05 16:34:00,63.9,46.9,30.08,WNW,292,3.1,4.6,54,0.00,BKN,,0.00,WeatherDisplay:10.37,2013-06-05 22:34:00,
2013-06-05 16:39:00,63.1,46.7,30.08,ENE,68,4.5,4.7,55,0.00,BKN,,0.00,WeatherDisplay:10.37,2013-06-05 22:39:00,
2013-06-05 16:44:00,62.8,46.9,30.08,ESE,112,4.7,6.3,56,0.00,BKN,,0.00,WeatherDisplay:10.37,2013-06-05 22:44:00,
2013-06-05 16:49:00,62.4,47.0,30.07,ESE,112,2.5,4.2,57,0.00,BKN,,0.00,WeatherDisplay:10.37,2013-06-05 22:49:00,
2013-06-05 16:54:00,62.8,46.9,30.07,East,90,4.2,6.3,56,0.00,BKN,,0.00,WeatherDisplay:10.37,2013-06-05 22:54:00,
2013-06-05 16:59:00,61.9,46.0,30.07,SSE,158,4.5,5.8,56,0.00,BKN,,0.00,WeatherDisplay:10.37,2013-06-05 22:59:00,
2013-06-05 17:04:00,61.9,46.5,30.07,ENE,68,4.3,5.8,57,0.00,BKN,,0.00,WeatherDisplay:10.37,2013-06-05 23:04:00,
2013-06-05 17:09:00,61.9,46.5,30.07,East,90,2.9,3.5,57,0.00,BKN,,0.00,WeatherDisplay:10.37,2013-06-05 23:09:00,
2013-06-05 17:14:00,61.3,45.5,30.07,ESE,112,3.0,4.6,56,0.00,OVC,,0.00,WeatherDisplay:10.37,2013-06-05 23:14:00,
2013-06-05 17:19:00,61.3,45.9,30.07,NE,45,2.7,4.6,57,0.00,OVC,,0.00,WeatherDisplay:10.37,2013-06-05 23:19:00,
2013-06-05 17:24:00,61.2,46.3,30.07,East,90,4.1,5.3,58,0.00,OVC,,0.00,WeatherDisplay:10.37,2013-06-05 23:24:00,
2013-06-05 17:29:00,61.2,46.8,30.07,ENE,68,5.3,6.9,59,0.00,OVC,,0.00,WeatherDisplay:10.37,2013-06-05 23:29:00,
2013-06-05 17:34:00,61.2,47.2,30.07,East,90,2.1,3.5,60,0.00,OVC,,0.00,WeatherDisplay:10.37,2013-06-05 23:34:00,
2013-06-05 17:39:00,61.2,47.2,30.06,SE,135,3.4,3.5,60,0.00,OVC,,0.00,WeatherDisplay:10.37,2013-06-05 23:39:00,
2013-06-05 17:44:00,60.8,47.3,30.06,NNE,22,4.0,4.6,61,0.00,OVC,,0.00,WeatherDisplay:10.37,2013-06-05 23:44:00,
2013-06-05 17:49:00,60.8,47.3,30.06,SSE,158,3.0,5.8,61,0.00,OVC,,0.00,WeatherDisplay:10.37,2013-06-05 23:49:00,
2013-06-05 17:54:00,60.8,46.8,30.06,SE,135,2.4,4.2,60,0.00,OVC,,0.00,WeatherDisplay:10.37,2013-06-05 23:54:00,
2013-06-05 17:59:00,60.6,47.1,30.06,NE,45,3.9,5.8,61,0.00,OVC,,0.00,WeatherDisplay:10.37,2013-06-05 23:59:00,
2013-06-05 18:05:00,60.6,47.1,30.07,ENE,68,2.1,3.5,61,0.00,OVC,,0.00,WeatherDisplay:10.37,2013-06-06 00:05:00,
2013-06-05 18:10:00,60.6,47.1,30.07,ESE,112,2.0,3.5,61,0.00,OVC,,0.00,WeatherDisplay:10.37,2013-06-06 00:10:00,
2013-06-05 18:15:00,60.8,46.8,30.07,East,90,2.5,4.7,60,0.00,OVC,,0.00,WeatherDisplay:10.37,2013-06-06 00:15:00,
2013-06-05 18:20:00,60.6,46.6,30.07,SE,135,2.1,4.6,60,0.00,OVC,,0.00,WeatherDisplay:10.37,2013-06-06 00:20:00,
2013-06-05 18:25:00,60.6,47.1,30.07,SE,135,3.0,4.6,61,0.00,OVC,,0.00,WeatherDisplay:10.37,2013-06-06 00:25:00,
2013-06-05 18:30:00,60.6,47.1,30.07,ESE,112,2.2,4.6,61,0.00,OVC,,0.00,WeatherDisplay:10.37,2013-06-06 00:30:00,
2013-06-05 18:35:00,60.3,46.8,30.07,ESE,112,2.5,3.5,61,0.00,OVC,,0.00,WeatherDisplay:10.37,2013-06-06 00:35:00,
2013-06-05 18:40:00,60.1,47.0,30.06,SSE,158,3.9,4.6,62,0.00,OVC,,0.00,WeatherDisplay:10.37,2013-06-06 00:40:00,
2013-06-05 18:45:00,60.1,47.0,30.06,ENE,68,3.3,5.8,62,0.00,OVC,,0.00,WeatherDisplay:10.37,2013-06-06 00:45:00,
2013-06-05 18:50:00,60.1,47.5,30.06,ENE,68,1.6,4.6,63,0.00,OVC,,0.00,WeatherDisplay:10.37,2013-06-06 00:50:00,
2013-06-05 18:55:00,59.7,47.5,30.06,NNE,22,3.4,4.6,64,0.00,OVC,,0.00,WeatherDisplay:10.37,2013-06-06 00:55:00,
2013-06-05 19:00:00,59.7,47.5,30.06,ESE,112,3.0,4.6,64,0.00,OVC,,0.00,WeatherDisplay:10.37,2013-06-06 01:00:00,
2013-06-05 19:05:00,59.7,47.9,30.06,NNE,22,2.7,2.7,65,0.00,OVC,,0.00,WeatherDisplay:10.37,2013-06-06 01:05:00,
2013-06-05 19:10:00,59.7,47.9,30.06,East,90,2.5,3.5,65,0.00,OVC,,0.00,WeatherDisplay:10.37,2013-06-06 01:10:00,
2013-06-05 19:15:00,59.7,47.9,30.06,SSE,158,1.5,2.7,65,0.00,OVC,,0.00,WeatherDisplay:10.37,2013-06-06 01:15:00,
2013-06-05 19:20:00,59.2,47.0,30.06,ESE,112,4.3,4.6,64,0.00,OVC,,0.00,WeatherDisplay:10.37,2013-06-06 01:20:00,
2013-06-05 19:25:00,59.2,47.0,30.06,South,180,2.5,2.7,64,0.00,OVC,,0.00,WeatherDisplay:10.37,2013-06-06 01:25:00,
2013-06-05 19:30:00,59.2,46.6,30.06,NE,45,3.8,5.8,63,0.00,OVC,,0.00,WeatherDisplay:10.37,2013-06-06 01:30:00,
2013-06-05 19:35:00,58.8,46.6,30.06,North,360,5.1,5.8,64,0.00,OVC,,0.00,WeatherDisplay:10.37,2013-06-06 01:35:00,
2013-06-05 19:40:00,58.8,47.1,30.06,NE,45,1.5,3.5,65,0.00,OVC,,0.00,WeatherDisplay:10.37,2013-06-06 01:40:00,
2013-06-05 19:45:00,58.6,47.3,30.06,ESE,112,2.1,3.5,66,0.00,OVC,,0.00,WeatherDisplay:10.37,2013-06-06 01:45:00,
2013-06-05 19:50:00,58.5,47.2,30.06,SSE,158,1.6,2.3,66,0.00,OVC,,0.00,WeatherDisplay:10.37,2013-06-06 01:50:00,
2013-06-05 19:55:00,58.1,47.2,30.06,ESE,112,2.7,3.5,67,0.00,OVC,,0.00,WeatherDisplay:10.37,2013-06-06 01:55:00,
2013-06-05 20:00:00,57.9,47.0,30.06,ENE,68,1.9,2.7,67,0.00,OVC,,0.00,WeatherDisplay:10.37,2013-06-06 02:00:00,
2013-06-05 20:05:00,57.7,47.6,30.06,ESE,112,2.3,2.7,69,0.00,OVC,,0.00,WeatherDisplay:10.37,2013-06-06 02:05:00,
2013-06-05 20:10:00,57.6,47.5,30.06,SE,135,2.1,2.3,69,0.00,OVC,,0.00,WeatherDisplay:10.37,2013-06-06 02:10:00,
2013-06-05 20:15:00,57.2,47.5,30.06,South,180,1.9,2.7,70,0.00,OVC,,0.00,WeatherDisplay:10.37,2013-06-06 02:15:00,
2013-06-05 20:20:00,57.0,47.7,30.06,East,90,1.3,1.3,71,0.00,OVC,,0.00,WeatherDisplay:10.37,2013-06-06 02:20:00,
2013-06-05 20:25:00,56.7,48.1,30.06,ESE,112,1.8,2.3,73,0.00,OVC,,0.00,WeatherDisplay:10.37,2013-06-06 02:25:00,
2013-06-05 20:30:00,56.5,47.9,30.06,SE,135,2.5,2.5,73,0.00,OVC,,0.00,WeatherDisplay:10.37,2013-06-06 02:30:00,
2013-06-05 20:35:00,56.5,48.3,30.06,ESE,112,1.5,2.3,74,0.00,OVC,,0.00,WeatherDisplay:10.37,2013-06-06 02:35:00,
2013-06-05 20:40:00,56.1,48.3,30.06,SSE,158,1.8,2.3,75,0.00,OVC,,0.00,WeatherDisplay:10.37,2013-06-06 02:40:00,
2013-06-05 20:45:00,55.9,48.4,30.06,ENE,68,2.0,2.3,76,0.00,OVC,,0.00,WeatherDisplay:10.37,2013-06-06 02:45:00,
2013-06-05 20:50:00,55.6,48.5,30.06,East,90,2.3,2.3,77,0.00,OVC,,0.00,WeatherDisplay:10.37,2013-06-06 02:50:00,
2013-06-05 20:55:00,55.4,48.7,30.06,ESE,112,1.9,2.3,78,0.00,OVC,,0.00,WeatherDisplay:10.37,2013-06-06 02:55:00,
2013-06-05 21:00:00,55.2,48.5,30.06,ESE,112,2.3,2.3,78,0.00,OVC,,0.00,WeatherDisplay:10.37,2013-06-06 03:00:00,
2013-06-05 21:05:00,55.2,48.8,30.06,ESE,112,2.2,2.7,79,0.00,OVC,,0.00,WeatherDisplay:10.37,2013-06-06 03:05:00,
2013-06-05 21:10:00,55.0,48.9,30.06,SE,135,2.0,2.7,80,0.00,OVC,,0.00,WeatherDisplay:10.37,2013-06-06 03:10:00,
2013-06-05 21:15:00,54.9,48.8,30.06,SE,135,1.3,2.3,80,0.00,BKN,,0.00,WeatherDisplay:10.37,2013-06-06 03:15:00,
2013-06-05 21:20:00,54.9,48.8,30.06,ESE,112,1.7,2.3,80,0.00,BKN,,0.00,WeatherDisplay:10.37,2013-06-06 03:20:00,
2013-06-05 21:25:00,54.7,48.6,30.06,ESE,112,1.7,2.3,80,0.00,BKN,,0.00,WeatherDisplay:10.37,2013-06-06 03:25:00,
2013-06-05 21:30:00,54.7,48.6,30.07,ESE,112,1.5,1.5,80,0.00,BKN,,0.00,WeatherDisplay:10.37,2013-06-06 03:30:00,
2013-06-05 21:35:00,54.5,48.5,30.07,East,90,2.3,2.7,80,0.00,BKN,,0.00,WeatherDisplay:10.37,2013-06-06 03:35:00,
2013-06-05 21:40:00,54.3,48.3,30.07,ESE,112,1.9,2.3,80,0.00,BKN,,0.00,WeatherDisplay:10.37,2013-06-06 03:40:00,
2013-06-05 21:45:00,54.3,48.6,30.07,East,90,2.2,2.3,81,0.00,BKN,,0.00,WeatherDisplay:10.37,2013-06-06 03:45:00,
2013-06-05 21:50:00,54.1,48.4,30.07,ENE,68,0.0,0.0,81,0.00,BKN,,0.00,WeatherDisplay:10.37,2013-06-06 03:50:00,
2013-06-05 21:55:00,54.1,48.4,30.07,SE,135,0.0,1.1,81,0.00,BKN,,0.00,WeatherDisplay:10.37,2013-06-06 03:55:00,
2013-06-05 22:00:00,54.0,48.3,30.07,East,90,0.8,1.1,81,0.00,BKN,,0.00,WeatherDisplay:10.37,2013-06-06 04:00:00,
2013-06-05 22:01:00,54.0,48.3,30.07,East,90,0.6,1.7,81,0.00,BKN,,0.00,WeatherDisplay:10.37,2013-06-06 04:01:00,
2013-06-05 22:06:00,53.8,48.4,30.07,East,90,0.9,1.1,82,0.00,OVC,,0.00,WeatherDisplay:10.37,2013-06-06 04:06:00,
2013-06-05 22:11:00,53.8,48.4,30.07,ENE,68,0.0,0.0,82,0.00,OVC,,0.00,WeatherDisplay:10.37,2013-06-06 04:11:00,
2013-06-05 22:17:00,53.8,48.4,30.07,WNW,292,0.0,0.0,82,0.00,OVC,,0.00,WeatherDisplay:10.37,2013-06-06 04:17:00,
2013-06-05 22:22:00,53.8,48.8,30.07,WNW,292,0.0,0.0,83,0.00,OVC,,0.00,WeatherDisplay:10.37,2013-06-06 04:22:00,
2013-06-05 22:27:00,53.8,48.8,30.06,SSE,158,1.5,2.3,83,0.00,OVC,,0.00,WeatherDisplay:10.37,2013-06-06 04:27:00,
2013-06-05 22:32:00,53.6,48.9,30.06,SSE,158,1.5,2.3,84,0.00,OVC,,0.00,WeatherDisplay:10.37,2013-06-06 04:32:00,
2013-06-05 22:37:00,53.6,48.9,30.07,SSE,158,1.7,2.3,84,0.00,OVC,,0.00,WeatherDisplay:10.37,2013-06-06 04:37:00,
2013-06-05 22:42:00,53.4,48.7,30.07,SE,135,0.0,0.0,84,0.00,OVC,,0.00,WeatherDisplay:10.37,2013-06-06 04:42:00,
2013-06-05 22:47:00,53.4,48.7,30.07,ESE,112,0.9,1.7,84,0.00,OVC,,0.00,WeatherDisplay:10.37,2013-06-06 04:47:00,
2013-06-05 22:52:00,53.2,48.5,30.06,SSE,158,1.6,2.3,84,0.00,OVC,,0.00,WeatherDisplay:10.37,2013-06-06 04:52:00,
2013-06-05 22:57:00,53.1,48.4,30.06,East,90,1.3,1.7,84,0.00,OVC,,0.00,WeatherDisplay:10.37,2013-06-06 04:57:00,
2013-06-05 23:02:00,52.9,48.5,30.06,East,90,0.0,0.0,85,0.00,OVC,,0.00,WeatherDisplay:10.37,2013-06-06 05:02:00,
2013-06-05 23:07:00,52.7,48.3,30.06,East,90,0.0,0.0,85,0.00,OVC,,0.00,WeatherDisplay:10.37,2013-06-06 05:07:00,
2013-06-05 23:12:00,52.3,48.2,30.06,ENE,68,0.5,1.7,86,0.00,OVC,,0.00,WeatherDisplay:10.37,2013-06-06 05:12:00,
2013-06-05 23:17:00,52.2,48.4,30.06,ENE,68,1.7,2.3,87,0.00,OVC,,0.00,WeatherDisplay:10.37,2013-06-06 05:17:00,
2013-06-05 23:22:00,52.0,48.3,30.06,East,90,0.0,0.0,87,0.00,OVC,,0.00,WeatherDisplay:10.37,2013-06-06 05:22:00,
2013-06-05 23:27:00,51.8,48.4,30.06,East,90,1.5,2.3,88,0.00,OVC,,0.00,WeatherDisplay:10.37,2013-06-06 05:27:00,
2013-06-05 23:32:00,51.6,48.2,30.06,SE,135,0.0,0.0,88,0.00,OVC,,0.00,WeatherDisplay:10.37,2013-06-06 05:32:00,
2013-06-05 23:37:00,51.3,47.9,30.06,East,90,0.0,0.0,88,0.00,OVC,,0.00,WeatherDisplay:10.37,2013-06-06 05:37:00,
2013-06-05 23:42:00,51.1,47.7,30.06,NNW,338,0.0,0.0,88,0.00,OVC,,0.00,WeatherDisplay:10.37,2013-06-06 05:42:00,
2013-06-05 23:47:00,50.7,47.6,30.06,ENE,68,0.0,0.0,89,0.00,OVC,,0.00,WeatherDisplay:10.37,2013-06-06 05:47:00,
2013-06-05 23:52:00,50.5,47.7,30.06,NE,45,0.0,0.0,90,0.00,OVC,,0.00,WeatherDisplay:10.37,2013-06-06 05:52:00,
2013-06-05 23:57:00,50.4,47.6,30.06,ENE,68,0.0,0.0,90,0.00,OVC,,0.00,WeatherDisplay:10.37,2013-06-06 05:57:00,